sensor_id;sensor_type;location;lat;lon;timestamp;pressure;altitude;pressure_sealevel;temperature;humidity
550;BME280;20066;48.764;9.176;2023-01-27T00:01:00;98455.06;;;0.93;72.18
550;BME280;20066;48.764;9.176;2023-01-27T00:03:29;98444.94;;;1.03;73.03
550;BME280;20066;48.764;9.176;2023-01-27T00:05:57;98442.72;;;1.14;72.56
550;BME280;20066;48.764;9.176;2023-01-27T00:08:27;98440.75;;;0.85;73.45
550;BME280;20066;48.764;9.176;2023-01-27T00:10:57;98447.13;;;0.67;73.20
550;BME280;20066;48.764;9.176;2023-01-27T00:13:38;98441.06;;;0.75;74.56
550;BME280;20066;48.764;9.176;2023-01-27T00:16:06;98438.53;;;0.10;76.75
550;BME280;20066;48.764;9.176;2023-01-27T00:18:35;98441.84;;;0.32;77.50
550;BME280;20066;48.764;9.176;2023-01-27T00:21:03;98441.44;;;1.37;72.84
550;BME280;20066;48.764;9.176;2023-01-27T00:23:49;98432.81;;;0.59;74.08
550;BME280;20066;48.764;9.176;2023-01-27T00:26:34;98428.28;;;0.86;74.79
550;BME280;20066;48.764;9.176;2023-01-27T00:29:02;98431.41;;;0.79;73.70
550;BME280;20066;48.764;9.176;2023-01-27T00:31:29;98431.34;;;1.13;70.87
550;BME280;20066;48.764;9.176;2023-01-27T00:34:16;98428.00;;;0.53;74.72
550;BME280;20066;48.764;9.176;2023-01-27T00:36:44;98434.81;;;1.05;73.15
550;BME280;20066;48.764;9.176;2023-01-27T00:39:12;98431.25;;;0.93;71.79
550;BME280;20066;48.764;9.176;2023-01-27T00:41:40;98430.47;;;0.40;73.47
550;BME280;20066;48.764;9.176;2023-01-27T00:44:07;98439.69;;;1.50;70.48
550;BME280;20066;48.764;9.176;2023-01-27T00:46:38;98438.72;;;0.91;72.69
550;BME280;20066;48.764;9.176;2023-01-27T00:49:07;98434.66;;;-0.33;76.79
550;BME280;20066;48.764;9.176;2023-01-27T00:51:36;98437.13;;;0.03;77.79
550;BME280;20066;48.764;9.176;2023-01-27T00:54:04;98439.19;;;0.67;74.46
550;BME280;20066;48.764;9.176;2023-01-27T00:56:32;98444.66;;;0.96;72.69
550;BME280;20066;48.764;9.176;2023-01-27T00:59:00;98436.53;;;0.75;71.76
550;BME280;20066;48.764;9.176;2023-01-27T01:01:28;98444.63;;;0.19;75.03
550;BME280;20066;48.764;9.176;2023-01-27T01:03:56;98439.97;;;0.41;74.85
550;BME280;20066;48.764;9.176;2023-01-27T01:06:25;98446.66;;;0.91;73.30
550;BME280;20066;48.764;9.176;2023-01-27T01:08:56;98442.19;;;0.74;73.98
550;BME280;20066;48.764;9.176;2023-01-27T01:11:24;98444.19;;;0.86;72.37
550;BME280;20066;48.764;9.176;2023-01-27T01:13:52;98449.03;;;0.58;72.92
550;BME280;20066;48.764;9.176;2023-01-27T01:16:23;98448.25;;;0.57;74.36
550;BME280;20066;48.764;9.176;2023-01-27T01:18:51;98444.00;;;0.91;74.00
550;BME280;20066;48.764;9.176;2023-01-27T01:21:19;98445.13;;;0.72;74.02
550;BME280;20066;48.764;9.176;2023-01-27T01:23:46;98444.16;;;0.25;74.17
550;BME280;20066;48.764;9.176;2023-01-27T01:26:16;98456.31;;;0.78;71.78
550;BME280;20066;48.764;9.176;2023-01-27T01:28:44;98452.59;;;0.79;72.58
550;BME280;20066;48.764;9.176;2023-01-27T01:31:14;98446.69;;;0.82;73.22
550;BME280;20066;48.764;9.176;2023-01-27T01:33:42;98452.13;;;1.03;73.48
550;BME280;20066;48.764;9.176;2023-01-27T01:36:12;98450.56;;;-0.24;75.97
550;BME280;20066;48.764;9.176;2023-01-27T01:38:40;98451.19;;;0.64;75.42
550;BME280;20066;48.764;9.176;2023-01-27T01:41:11;98446.06;;;0.51;74.49
550;BME280;20066;48.764;9.176;2023-01-27T01:43:40;98447.00;;;0.63;74.02
550;BME280;20066;48.764;9.176;2023-01-27T01:46:09;98448.78;;;0.02;76.74
550;BME280;20066;48.764;9.176;2023-01-27T01:48:39;98451.97;;;0.48;74.10
550;BME280;20066;48.764;9.176;2023-01-27T01:51:10;98443.03;;;1.21;73.68
550;BME280;20066;48.764;9.176;2023-01-27T01:53:42;98444.16;;;0.34;76.32
550;BME280;20066;48.764;9.176;2023-01-27T01:56:13;98432.28;;;0.05;75.95
550;BME280;20066;48.764;9.176;2023-01-27T01:58:44;98433.91;;;0.84;74.55
550;BME280;20066;48.764;9.176;2023-01-27T02:01:15;98437.53;;;1.81;71.51
550;BME280;20066;48.764;9.176;2023-01-27T02:03:46;98416.09;;;1.28;71.69
550;BME280;20066;48.764;9.176;2023-01-27T02:06:15;98424.41;;;0.83;72.93
550;BME280;20066;48.764;9.176;2023-01-27T02:08:45;98415.69;;;0.31;74.26
550;BME280;20066;48.764;9.176;2023-01-27T02:11:14;98421.59;;;0.36;75.55
550;BME280;20066;48.764;9.176;2023-01-27T02:13:44;98419.13;;;0.74;75.38
550;BME280;20066;48.764;9.176;2023-01-27T02:16:12;98419.91;;;0.58;75.17
550;BME280;20066;48.764;9.176;2023-01-27T02:18:40;98410.66;;;-0.05;77.65
550;BME280;20066;48.764;9.176;2023-01-27T02:21:09;98414.09;;;0.99;73.94
550;BME280;20066;48.764;9.176;2023-01-27T02:23:47;98420.56;;;1.36;72.24
550;BME280;20066;48.764;9.176;2023-01-27T02:26:22;98420.16;;;0.99;71.88
550;BME280;20066;48.764;9.176;2023-01-27T02:28:53;98417.03;;;1.14;71.88
550;BME280;20066;48.764;9.176;2023-01-27T02:31:22;98414.91;;;1.84;70.25
550;BME280;20066;48.764;9.176;2023-01-27T02:33:53;98412.66;;;1.65;69.65
550;BME280;20066;48.764;9.176;2023-01-27T02:36:23;98411.41;;;1.16;71.49
550;BME280;20066;48.764;9.176;2023-01-27T02:38:55;98410.63;;;1.15;69.61
550;BME280;20066;48.764;9.176;2023-01-27T02:41:28;98412.47;;;1.70;70.01
550;BME280;20066;48.764;9.176;2023-01-27T02:43:56;98411.72;;;1.61;67.21
550;BME280;20066;48.764;9.176;2023-01-27T02:46:24;98423.63;;;0.82;71.09
550;BME280;20066;48.764;9.176;2023-01-27T02:48:52;98419.44;;;0.64;73.04
550;BME280;20066;48.764;9.176;2023-01-27T02:51:20;98414.75;;;0.78;71.49
550;BME280;20066;48.764;9.176;2023-01-27T02:53:48;98406.50;;;0.11;75.94
550;BME280;20066;48.764;9.176;2023-01-27T02:56:15;98408.72;;;0.35;74.20
550;BME280;20066;48.764;9.176;2023-01-27T02:58:45;98415.41;;;1.39;70.98
550;BME280;20066;48.764;9.176;2023-01-27T03:01:12;98407.59;;;0.10;73.42
550;BME280;20066;48.764;9.176;2023-01-27T03:03:40;98405.66;;;-0.15;75.73
550;BME280;20066;48.764;9.176;2023-01-27T03:06:12;98399.81;;;0.31;76.26
550;BME280;20066;48.764;9.176;2023-01-27T03:08:40;98403.81;;;1.06;71.86
550;BME280;20066;48.764;9.176;2023-01-27T03:11:09;98398.75;;;1.30;69.19
550;BME280;20066;48.764;9.176;2023-01-27T03:13:37;98402.59;;;2.09;66.47
550;BME280;20066;48.764;9.176;2023-01-27T03:16:07;98398.06;;;1.50;68.12
550;BME280;20066;48.764;9.176;2023-01-27T03:18:52;98404.16;;;0.01;71.53
550;BME280;20066;48.764;9.176;2023-01-27T03:21:22;98410.41;;;0.74;71.64
550;BME280;20066;48.764;9.176;2023-01-27T03:23:49;98405.06;;;-0.04;73.72
550;BME280;20066;48.764;9.176;2023-01-27T03:26:17;98407.47;;;0.50;71.94
550;BME280;20066;48.764;9.176;2023-01-27T03:28:44;98402.16;;;0.24;73.33
550;BME280;20066;48.764;9.176;2023-01-27T03:31:34;98409.06;;;-0.23;74.68
550;BME280;20066;48.764;9.176;2023-01-27T03:34:02;98410.31;;;-0.21;74.73
550;BME280;20066;48.764;9.176;2023-01-27T03:36:30;98421.91;;;0.52;74.61
550;BME280;20066;48.764;9.176;2023-01-27T03:39:15;98416.84;;;-0.27;75.71
550;BME280;20066;48.764;9.176;2023-01-27T03:42:00;98413.47;;;-0.02;74.30
550;BME280;20066;48.764;9.176;2023-01-27T03:44:45;98415.31;;;-0.02;73.78
550;BME280;20066;48.764;9.176;2023-01-27T03:47:32;98424.25;;;0.88;70.43
550;BME280;20066;48.764;9.176;2023-01-27T03:49:59;98420.03;;;0.87;69.84
550;BME280;20066;48.764;9.176;2023-01-27T03:52:27;98419.69;;;0.02;73.96
550;BME280;20066;48.764;9.176;2023-01-27T03:54:55;98414.59;;;0.23;73.33
550;BME280;20066;48.764;9.176;2023-01-27T03:57:22;98416.09;;;-0.02;75.05
550;BME280;20066;48.764;9.176;2023-01-27T03:59:50;98413.84;;;0.57;74.93
550;BME280;20066;48.764;9.176;2023-01-27T04:02:18;98412.44;;;0.51;73.51
550;BME280;20066;48.764;9.176;2023-01-27T04:05:05;98412.41;;;0.77;70.68
550;BME280;20066;48.764;9.176;2023-01-27T04:07:50;98421.13;;;0.60;71.73
550;BME280;20066;48.764;9.176;2023-01-27T04:10:18;98421.81;;;-0.17;75.44
550;BME280;20066;48.764;9.176;2023-01-27T04:12:47;98414.44;;;0.28;74.61
550;BME280;20066;48.764;9.176;2023-01-27T04:15:14;98421.63;;;0.79;72.38
550;BME280;20066;48.764;9.176;2023-01-27T04:17:42;98423.78;;;0.60;69.84
550;BME280;20066;48.764;9.176;2023-01-27T04:20:12;98426.97;;;1.73;68.32
550;BME280;20066;48.764;9.176;2023-01-27T04:22:39;98426.50;;;1.71;66.71
550;BME280;20066;48.764;9.176;2023-01-27T04:25:08;98427.69;;;0.97;70.08
550;BME280;20066;48.764;9.176;2023-01-27T04:27:38;98432.78;;;1.02;69.23
550;BME280;20066;48.764;9.176;2023-01-27T04:30:08;98431.81;;;-0.05;73.56
550;BME280;20066;48.764;9.176;2023-01-27T04:32:36;98440.44;;;0.69;71.07
550;BME280;20066;48.764;9.176;2023-01-27T04:35:04;98435.19;;;1.42;69.67
550;BME280;20066;48.764;9.176;2023-01-27T04:37:33;98434.03;;;0.36;72.24
550;BME280;20066;48.764;9.176;2023-01-27T04:40:01;98439.00;;;1.06;70.79
550;BME280;20066;48.764;9.176;2023-01-27T04:42:28;98435.56;;;1.23;71.01
550;BME280;20066;48.764;9.176;2023-01-27T04:44:56;98433.41;;;0.99;70.80
550;BME280;20066;48.764;9.176;2023-01-27T04:47:24;98432.28;;;1.26;69.85
550;BME280;20066;48.764;9.176;2023-01-27T04:49:51;98428.41;;;1.15;68.49
550;BME280;20066;48.764;9.176;2023-01-27T04:52:19;98432.88;;;1.32;69.02
550;BME280;20066;48.764;9.176;2023-01-27T04:54:48;98434.06;;;0.88;70.30
550;BME280;20066;48.764;9.176;2023-01-27T04:57:16;98435.47;;;0.51;72.96
550;BME280;20066;48.764;9.176;2023-01-27T04:59:43;98434.13;;;-0.12;75.54
550;BME280;20066;48.764;9.176;2023-01-27T05:02:11;98421.63;;;0.62;72.51
550;BME280;20066;48.764;9.176;2023-01-27T05:04:39;98425.97;;;0.41;74.04
550;BME280;20066;48.764;9.176;2023-01-27T05:07:08;98439.59;;;-0.00;74.76
550;BME280;20066;48.764;9.176;2023-01-27T05:09:36;98439.34;;;0.36;72.91
550;BME280;20066;48.764;9.176;2023-01-27T05:12:05;98432.34;;;0.40;73.98
550;BME280;20066;48.764;9.176;2023-01-27T05:14:33;98442.44;;;0.38;73.64
550;BME280;20066;48.764;9.176;2023-01-27T05:17:00;98439.34;;;0.88;73.75
550;BME280;20066;48.764;9.176;2023-01-27T05:19:28;98444.75;;;1.17;70.07
550;BME280;20066;48.764;9.176;2023-01-27T05:21:56;98441.69;;;0.89;72.08
550;BME280;20066;48.764;9.176;2023-01-27T05:24:24;98431.56;;;0.48;73.39
550;BME280;20066;48.764;9.176;2023-01-27T05:26:51;98433.56;;;1.11;71.15
550;BME280;20066;48.764;9.176;2023-01-27T05:29:21;98438.28;;;0.63;73.37
550;BME280;20066;48.764;9.176;2023-01-27T05:31:49;98447.59;;;0.26;74.11
550;BME280;20066;48.764;9.176;2023-01-27T05:34:16;98453.69;;;0.69;74.38
550;BME280;20066;48.764;9.176;2023-01-27T05:36:44;98453.16;;;1.28;72.18
550;BME280;20066;48.764;9.176;2023-01-27T05:39:12;98456.75;;;1.23;71.58
550;BME280;20066;48.764;9.176;2023-01-27T05:41:40;98462.97;;;0.24;74.84
550;BME280;20066;48.764;9.176;2023-01-27T05:44:10;98462.34;;;0.18;75.16
550;BME280;20066;48.764;9.176;2023-01-27T05:46:40;98467.41;;;-0.03;75.91
550;BME280;20066;48.764;9.176;2023-01-27T05:49:08;98475.16;;;0.94;72.98
550;BME280;20066;48.764;9.176;2023-01-27T05:51:37;98469.09;;;1.02;71.95
550;BME280;20066;48.764;9.176;2023-01-27T05:54:06;98463.66;;;0.81;74.21
550;BME280;20066;48.764;9.176;2023-01-27T05:56:34;98466.19;;;1.50;70.59
550;BME280;20066;48.764;9.176;2023-01-27T05:59:02;98469.19;;;1.22;72.28
550;BME280;20066;48.764;9.176;2023-01-27T06:01:33;98473.44;;;1.70;69.14
550;BME280;20066;48.764;9.176;2023-01-27T06:04:04;98471.09;;;0.27;72.70
550;BME280;20066;48.764;9.176;2023-01-27T06:06:32;98467.97;;;0.25;75.21
550;BME280;20066;48.764;9.176;2023-01-27T06:09:00;98463.28;;;0.22;74.23
550;BME280;20066;48.764;9.176;2023-01-27T06:11:29;98467.22;;;0.94;73.46
550;BME280;20066;48.764;9.176;2023-01-27T06:13:57;98474.00;;;1.29;71.68
550;BME280;20066;48.764;9.176;2023-01-27T06:16:25;98464.25;;;1.68;67.99
550;BME280;20066;48.764;9.176;2023-01-27T06:18:53;98466.91;;;2.06;66.82
550;BME280;20066;48.764;9.176;2023-01-27T06:21:22;98468.00;;;1.67;69.39
550;BME280;20066;48.764;9.176;2023-01-27T06:23:50;98464.00;;;0.05;74.27
550;BME280;20066;48.764;9.176;2023-01-27T06:26:19;98467.22;;;0.51;74.25
550;BME280;20066;48.764;9.176;2023-01-27T06:28:46;98461.78;;;0.64;73.23
550;BME280;20066;48.764;9.176;2023-01-27T06:31:17;98465.16;;;0.30;74.85
550;BME280;20066;48.764;9.176;2023-01-27T06:33:45;98467.38;;;0.97;71.81
550;BME280;20066;48.764;9.176;2023-01-27T06:36:15;98472.06;;;0.74;72.75
550;BME280;20066;48.764;9.176;2023-01-27T06:38:44;98467.88;;;0.82;71.10
550;BME280;20066;48.764;9.176;2023-01-27T06:41:12;98472.50;;;1.11;70.23
550;BME280;20066;48.764;9.176;2023-01-27T06:43:40;98470.28;;;0.18;75.24
550;BME280;20066;48.764;9.176;2023-01-27T06:46:08;98483.69;;;-0.18;76.01
550;BME280;20066;48.764;9.176;2023-01-27T06:48:36;98482.44;;;-0.20;77.90
550;BME280;20066;48.764;9.176;2023-01-27T06:51:05;98483.75;;;0.73;73.90
550;BME280;20066;48.764;9.176;2023-01-27T06:53:33;98500.06;;;0.67;72.03
550;BME280;20066;48.764;9.176;2023-01-27T06:56:04;98491.69;;;0.08;76.10
550;BME280;20066;48.764;9.176;2023-01-27T06:58:32;98494.03;;;0.10;77.04
550;BME280;20066;48.764;9.176;2023-01-27T07:01:02;98500.34;;;0.48;73.53
550;BME280;20066;48.764;9.176;2023-01-27T07:03:30;98505.78;;;0.52;73.97
550;BME280;20066;48.764;9.176;2023-01-27T07:05:58;98515.19;;;0.66;72.28
550;BME280;20066;48.764;9.176;2023-01-27T07:08:26;98516.56;;;0.64;74.23
550;BME280;20066;48.764;9.176;2023-01-27T07:10:53;98521.69;;;0.43;74.85
550;BME280;20066;48.764;9.176;2023-01-27T07:13:22;98527.34;;;0.11;74.41
550;BME280;20066;48.764;9.176;2023-01-27T07:15:53;98530.41;;;0.69;75.48
550;BME280;20066;48.764;9.176;2023-01-27T07:18:22;98531.53;;;1.11;72.49
550;BME280;20066;48.764;9.176;2023-01-27T07:20:50;98537.63;;;0.95;69.78
550;BME280;20066;48.764;9.176;2023-01-27T07:23:17;98532.94;;;0.92;73.05
550;BME280;20066;48.764;9.176;2023-01-27T07:25:45;98536.34;;;0.92;71.81
550;BME280;20066;48.764;9.176;2023-01-27T07:28:13;98536.97;;;0.80;72.50
550;BME280;20066;48.764;9.176;2023-01-27T07:30:42;98543.38;;;0.79;73.52
550;BME280;20066;48.764;9.176;2023-01-27T07:33:12;98538.06;;;1.22;71.89
550;BME280;20066;48.764;9.176;2023-01-27T07:35:40;98531.69;;;0.80;72.30
550;BME280;20066;48.764;9.176;2023-01-27T07:38:10;98536.19;;;1.14;72.17
550;BME280;20066;48.764;9.176;2023-01-27T07:40:38;98542.59;;;1.22;69.71
550;BME280;20066;48.764;9.176;2023-01-27T07:43:06;98539.19;;;0.22;73.24
550;BME280;20066;48.764;9.176;2023-01-27T07:45:34;98542.44;;;1.18;71.73
550;BME280;20066;48.764;9.176;2023-01-27T07:48:05;98544.50;;;0.30;72.76
550;BME280;20066;48.764;9.176;2023-01-27T07:50:33;98547.38;;;0.68;74.40
550;BME280;20066;48.764;9.176;2023-01-27T07:53:02;98550.22;;;1.06;73.46
550;BME280;20066;48.764;9.176;2023-01-27T07:55:31;98553.44;;;1.64;70.92
550;BME280;20066;48.764;9.176;2023-01-27T07:58:00;98562.25;;;0.38;75.44
550;BME280;20066;48.764;9.176;2023-01-27T08:00:28;98564.41;;;0.36;74.16
550;BME280;20066;48.764;9.176;2023-01-27T08:02:57;98572.78;;;0.87;71.82
550;BME280;20066;48.764;9.176;2023-01-27T08:05:28;98566.69;;;0.69;74.03
550;BME280;20066;48.764;9.176;2023-01-27T08:07:58;98569.31;;;0.60;72.64
550;BME280;20066;48.764;9.176;2023-01-27T08:10:29;98565.41;;;0.49;73.12
550;BME280;20066;48.764;9.176;2023-01-27T08:12:57;98561.38;;;0.60;72.24
550;BME280;20066;48.764;9.176;2023-01-27T08:15:24;98562.53;;;1.11;70.34
550;BME280;20066;48.764;9.176;2023-01-27T08:17:53;98563.59;;;1.44;69.05
550;BME280;20066;48.764;9.176;2023-01-27T08:20:22;98561.59;;;1.24;70.36
550;BME280;20066;48.764;9.176;2023-01-27T08:22:51;98564.88;;;0.95;70.87
550;BME280;20066;48.764;9.176;2023-01-27T08:25:19;98564.38;;;0.76;71.54
550;BME280;20066;48.764;9.176;2023-01-27T08:27:49;98574.06;;;0.98;70.30
550;BME280;20066;48.764;9.176;2023-01-27T08:30:17;98574.69;;;-0.55;75.15
550;BME280;20066;48.764;9.176;2023-01-27T08:32:45;98578.75;;;0.44;74.11
550;BME280;20066;48.764;9.176;2023-01-27T08:35:13;98575.28;;;0.74;70.99
550;BME280;20066;48.764;9.176;2023-01-27T08:37:41;98587.06;;;0.68;72.40
550;BME280;20066;48.764;9.176;2023-01-27T08:40:13;98585.16;;;0.52;72.94
550;BME280;20066;48.764;9.176;2023-01-27T08:42:41;98594.72;;;0.70;72.63
550;BME280;20066;48.764;9.176;2023-01-27T08:45:09;98583.88;;;1.23;69.37
550;BME280;20066;48.764;9.176;2023-01-27T08:47:36;98590.19;;;0.62;72.75
550;BME280;20066;48.764;9.176;2023-01-27T08:50:05;98591.22;;;0.43;72.87
550;BME280;20066;48.764;9.176;2023-01-27T08:52:32;98592.81;;;0.62;72.46
550;BME280;20066;48.764;9.176;2023-01-27T08:55:00;98596.63;;;0.95;72.30
550;BME280;20066;48.764;9.176;2023-01-27T08:57:29;98587.31;;;1.49;69.06
550;BME280;20066;48.764;9.176;2023-01-27T09:00:01;98597.28;;;1.27;71.02
550;BME280;20066;48.764;9.176;2023-01-27T09:02:29;98599.22;;;-0.10;72.89
550;BME280;20066;48.764;9.176;2023-01-27T09:04:57;98611.44;;;0.09;73.67
550;BME280;20066;48.764;9.176;2023-01-27T09:07:25;98611.66;;;0.60;73.06
550;BME280;20066;48.764;9.176;2023-01-27T09:09:52;98599.34;;;0.16;72.56
550;BME280;20066;48.764;9.176;2023-01-27T09:12:40;98600.22;;;1.08;70.00
550;BME280;20066;48.764;9.176;2023-01-27T09:15:08;98588.03;;;0.72;70.41
550;BME280;20066;48.764;9.176;2023-01-27T09:17:36;98591.47;;;0.73;69.77
550;BME280;20066;48.764;9.176;2023-01-27T09:20:05;98594.44;;;1.75;66.72
550;BME280;20066;48.764;9.176;2023-01-27T09:22:33;98602.41;;;0.97;68.55
550;BME280;20066;48.764;9.176;2023-01-27T09:25:02;98598.28;;;0.57;68.86
550;BME280;20066;48.764;9.176;2023-01-27T09:27:30;98591.75;;;0.71;70.42
550;BME280;20066;48.764;9.176;2023-01-27T09:30:08;98599.44;;;0.99;68.09
550;BME280;20066;48.764;9.176;2023-01-27T09:32:37;98600.38;;;1.03;69.54
550;BME280;20066;48.764;9.176;2023-01-27T09:35:06;98594.13;;;0.99;68.14
550;BME280;20066;48.764;9.176;2023-01-27T09:37:37;98589.16;;;0.89;69.76
550;BME280;20066;48.764;9.176;2023-01-27T09:40:13;98602.31;;;0.54;71.19
550;BME280;20066;48.764;9.176;2023-01-27T09:43:02;98605.38;;;1.21;70.03
550;BME280;20066;48.764;9.176;2023-01-27T09:45:42;98602.34;;;0.23;71.17
550;BME280;20066;48.764;9.176;2023-01-27T09:48:30;98608.34;;;0.46;71.21
550;BME280;20066;48.764;9.176;2023-01-27T09:51:08;98604.88;;;0.85;69.38
550;BME280;20066;48.764;9.176;2023-01-27T09:54:11;98603.03;;;1.03;69.67
550;BME280;20066;48.764;9.176;2023-01-27T09:56:46;98610.25;;;0.63;69.72
550;BME280;20066;48.764;9.176;2023-01-27T09:59:37;98598.97;;;0.97;69.91
550;BME280;20066;48.764;9.176;2023-01-27T10:02:23;98607.94;;;0.22;73.02
550;BME280;20066;48.764;9.176;2023-01-27T10:05:11;98607.72;;;0.40;72.36
550;BME280;20066;48.764;9.176;2023-01-27T10:07:54;98608.56;;;0.19;72.20
550;BME280;20066;48.764;9.176;2023-01-27T10:10:34;98609.53;;;0.00;73.16
550;BME280;20066;48.764;9.176;2023-01-27T10:13:15;98614.19;;;0.82;70.58
550;BME280;20066;48.764;9.176;2023-01-27T10:15:55;98606.00;;;1.44;67.85
550;BME280;20066;48.764;9.176;2023-01-27T10:18:36;98609.88;;;1.73;67.80
550;BME280;20066;48.764;9.176;2023-01-27T10:21:15;98607.78;;;2.13;66.68
550;BME280;20066;48.764;9.176;2023-01-27T10:23:55;98612.00;;;2.05;63.88
550;BME280;20066;48.764;9.176;2023-01-27T10:26:29;98600.38;;;2.27;64.75
550;BME280;20066;48.764;9.176;2023-01-27T10:29:04;98608.09;;;0.65;67.09
550;BME280;20066;48.764;9.176;2023-01-27T10:31:36;98596.78;;;0.90;67.51
550;BME280;20066;48.764;9.176;2023-01-27T10:34:12;98604.47;;;0.13;71.22
550;BME280;20066;48.764;9.176;2023-01-27T10:36:51;98607.03;;;0.83;70.15
550;BME280;20066;48.764;9.176;2023-01-27T10:39:28;98606.00;;;1.53;65.69
550;BME280;20066;48.764;9.176;2023-01-27T10:42:06;98607.28;;;0.56;68.14
550;BME280;20066;48.764;9.176;2023-01-27T10:44:49;98606.47;;;1.64;64.05
550;BME280;20066;48.764;9.176;2023-01-27T10:47:28;98607.25;;;1.04;67.44
550;BME280;20066;48.764;9.176;2023-01-27T10:50:01;98613.34;;;1.47;65.43
550;BME280;20066;48.764;9.176;2023-01-27T10:52:34;98626.22;;;1.92;65.20
550;BME280;20066;48.764;9.176;2023-01-27T10:55:13;98625.00;;;1.03;66.90
550;BME280;20066;48.764;9.176;2023-01-27T10:57:46;98617.50;;;0.88;67.09
550;BME280;20066;48.764;9.176;2023-01-27T11:00:23;98610.47;;;1.95;64.19
550;BME280;20066;48.764;9.176;2023-01-27T11:03:18;98608.81;;;2.67;64.22
550;BME280;20066;48.764;9.176;2023-01-27T11:05:52;98610.03;;;0.99;67.11
550;BME280;20066;48.764;9.176;2023-01-27T11:08:22;98605.38;;;1.39;66.76
550;BME280;20066;48.764;9.176;2023-01-27T11:10:54;98604.50;;;1.98;66.05
550;BME280;20066;48.764;9.176;2023-01-27T11:13:41;98611.16;;;1.49;67.46
550;BME280;20066;48.764;9.176;2023-01-27T11:16:14;98599.88;;;1.78;64.53
550;BME280;20066;48.764;9.176;2023-01-27T11:18:42;98610.72;;;2.20;62.38
550;BME280;20066;48.764;9.176;2023-01-27T11:21:17;98612.84;;;1.45;66.37
550;BME280;20066;48.764;9.176;2023-01-27T11:23:48;98608.78;;;1.74;66.61
550;BME280;20066;48.764;9.176;2023-01-27T11:26:25;98614.38;;;1.98;65.04
550;BME280;20066;48.764;9.176;2023-01-27T11:29:08;98604.13;;;2.26;64.34
550;BME280;20066;48.764;9.176;2023-01-27T11:31:41;98603.69;;;0.43;70.68
550;BME280;20066;48.764;9.176;2023-01-27T11:34:17;98596.00;;;0.81;68.52
550;BME280;20066;48.764;9.176;2023-01-27T11:36:49;98597.59;;;1.42;68.03
550;BME280;20066;48.764;9.176;2023-01-27T11:39:17;98594.00;;;1.55;66.92
550;BME280;20066;48.764;9.176;2023-01-27T11:41:49;98603.63;;;0.74;68.51
550;BME280;20066;48.764;9.176;2023-01-27T11:44:18;98587.56;;;1.82;65.26
550;BME280;20066;48.764;9.176;2023-01-27T11:46:47;98581.09;;;1.28;66.34
550;BME280;20066;48.764;9.176;2023-01-27T11:49:20;98580.47;;;2.12;65.09
550;BME280;20066;48.764;9.176;2023-01-27T11:51:50;98573.69;;;1.68;64.32
550;BME280;20066;48.764;9.176;2023-01-27T11:54:21;98587.16;;;1.20;67.38
550;BME280;20066;48.764;9.176;2023-01-27T11:56:50;98581.88;;;1.29;67.66
550;BME280;20066;48.764;9.176;2023-01-27T11:59:22;98583.56;;;1.50;65.87
550;BME280;20066;48.764;9.176;2023-01-27T12:01:53;98583.69;;;2.26;62.60
550;BME280;20066;48.764;9.176;2023-01-27T12:04:25;98575.44;;;1.64;65.33
550;BME280;20066;48.764;9.176;2023-01-27T12:07:05;98578.88;;;1.56;65.24
550;BME280;20066;48.764;9.176;2023-01-27T12:09:36;98570.94;;;1.47;66.93
550;BME280;20066;48.764;9.176;2023-01-27T12:12:10;98574.69;;;2.10;65.39
550;BME280;20066;48.764;9.176;2023-01-27T12:14:38;98563.44;;;1.67;67.40
550;BME280;20066;48.764;9.176;2023-01-27T12:17:07;98564.16;;;1.76;66.60
550;BME280;20066;48.764;9.176;2023-01-27T12:19:39;98569.31;;;1.81;65.92
550;BME280;20066;48.764;9.176;2023-01-27T12:22:14;98559.84;;;1.54;66.92
550;BME280;20066;48.764;9.176;2023-01-27T12:24:48;98573.72;;;2.53;64.95
550;BME280;20066;48.764;9.176;2023-01-27T12:27:21;98567.19;;;2.12;65.14
550;BME280;20066;48.764;9.176;2023-01-27T12:29:51;98559.13;;;2.00;64.67
550;BME280;20066;48.764;9.176;2023-01-27T12:32:23;98559.16;;;2.29;64.92
550;BME280;20066;48.764;9.176;2023-01-27T12:34:54;98562.78;;;2.54;64.74
550;BME280;20066;48.764;9.176;2023-01-27T12:37:27;98559.38;;;0.66;69.05
550;BME280;20066;48.764;9.176;2023-01-27T12:39:57;98563.25;;;0.68;70.15
550;BME280;20066;48.764;9.176;2023-01-27T12:42:39;98556.28;;;0.81;69.64
550;BME280;20066;48.764;9.176;2023-01-27T12:45:17;98552.69;;;0.77;69.67
550;BME280;20066;48.764;9.176;2023-01-27T12:47:58;98554.25;;;1.30;68.52
550;BME280;20066;48.764;9.176;2023-01-27T12:50:27;98560.19;;;2.08;66.63
550;BME280;20066;48.764;9.176;2023-01-27T12:53:10;98555.69;;;1.36;68.52
550;BME280;20066;48.764;9.176;2023-01-27T12:55:41;98564.84;;;1.21;69.75
550;BME280;20066;48.764;9.176;2023-01-27T12:58:32;98554.25;;;1.55;68.94
550;BME280;20066;48.764;9.176;2023-01-27T13:01:02;98555.22;;;1.34;69.93
550;BME280;20066;48.764;9.176;2023-01-27T13:03:37;98561.47;;;1.12;70.04
550;BME280;20066;48.764;9.176;2023-01-27T13:06:05;98554.59;;;1.19;69.71
550;BME280;20066;48.764;9.176;2023-01-27T13:08:38;98554.09;;;2.07;67.29
550;BME280;20066;48.764;9.176;2023-01-27T13:11:06;98552.53;;;1.59;68.42
550;BME280;20066;48.764;9.176;2023-01-27T13:13:34;98550.72;;;2.36;66.36
550;BME280;20066;48.764;9.176;2023-01-27T13:16:05;98558.06;;;2.30;65.00
550;BME280;20066;48.764;9.176;2023-01-27T13:18:41;98559.25;;;2.42;65.92
550;BME280;20066;48.764;9.176;2023-01-27T13:21:12;98562.28;;;2.31;65.80
550;BME280;20066;48.764;9.176;2023-01-27T13:23:43;98562.88;;;2.66;64.38
550;BME280;20066;48.764;9.176;2023-01-27T13:26:16;98563.56;;;2.55;65.59
550;BME280;20066;48.764;9.176;2023-01-27T13:28:50;98554.88;;;2.96;63.84
550;BME280;20066;48.764;9.176;2023-01-27T13:31:28;98557.00;;;1.68;66.70
550;BME280;20066;48.764;9.176;2023-01-27T13:34:03;98567.72;;;2.64;64.83
550;BME280;20066;48.764;9.176;2023-01-27T13:36:39;98562.22;;;1.21;68.18
550;BME280;20066;48.764;9.176;2023-01-27T13:39:16;98563.16;;;1.25;69.04
550;BME280;20066;48.764;9.176;2023-01-27T13:41:50;98570.81;;;1.35;68.62
550;BME280;20066;48.764;9.176;2023-01-27T13:44:28;98572.50;;;1.14;70.69
550;BME280;20066;48.764;9.176;2023-01-27T13:47:00;98574.97;;;1.62;69.88
550;BME280;20066;48.764;9.176;2023-01-27T13:49:33;98581.19;;;1.75;68.04
550;BME280;20066;48.764;9.176;2023-01-27T13:52:04;98579.50;;;2.17;67.76
550;BME280;20066;48.764;9.176;2023-01-27T13:54:34;98587.22;;;1.84;67.95